createdAt,value
2018-02-08T18:12:12.277Z,68.30
2018-02-08T18:15:27.541Z,68.20
2018-02-08T18:17:55.419Z,68.20
2018-02-08T18:20:23.301Z,68.20
2018-02-08T18:22:51.218Z,68.10
2018-02-08T18:25:19.134Z,68.10
2018-02-08T18:27:47.118Z,68.10
2018-02-08T18:30:15.024Z,68.80
2018-02-08T18:32:42.964Z,68.90
2018-02-08T18:35:11.690Z,68.00
2018-02-08T18:37:39.538Z,68.00
2018-02-08T18:40:07.508Z,68.10
2018-02-08T18:42:35.484Z,68.00
2018-02-08T18:45:03.365Z,68.10
2018-02-08T18:47:31.288Z,68.10
2018-02-08T18:50:00.087Z,68.10
2018-02-08T18:52:27.938Z,68.10
2018-02-08T18:54:56.658Z,69.30
2018-02-08T18:57:24.699Z,68.50
2018-02-08T18:59:53.518Z,68.80
2018-02-08T19:02:21.536Z,68.80
2018-02-08T19:04:49.405Z,68.80
2018-02-08T19:07:17.262Z,69.00
2018-02-08T19:09:45.207Z,69.20
2018-02-08T19:12:13.129Z,68.50
2018-02-08T19:14:41.757Z,67.50
2018-02-08T19:17:09.796Z,67.50
2018-02-08T19:19:37.637Z,67.30
2018-02-08T19:22:06.329Z,68.10
2018-02-08T19:24:35.030Z,67.40
2018-02-08T19:27:03.109Z,67.30
2018-02-08T19:29:31.002Z,67.40
2018-02-08T19:31:58.905Z,67.60
2018-02-08T19:34:26.762Z,67.70
2018-02-08T19:36:54.665Z,68.00
2018-02-08T19:39:25.105Z,68.20
2018-02-08T19:41:53.130Z,68.20
2018-02-08T19:44:21.029Z,68.40
2018-02-08T19:46:49.725Z,68.20
2018-02-08T19:49:17.606Z,68.20
2018-02-08T19:51:45.531Z,68.50
2018-02-08T19:54:13.468Z,68.80
2018-02-08T19:56:42.133Z,69.10
2018-02-08T19:59:09.958Z,69.10
2018-02-08T20:01:38.670Z,68.30
2018-02-08T20:04:06.533Z,68.40
2018-02-08T20:06:34.469Z,68.30
2018-02-08T20:09:04.493Z,68.40
2018-02-08T20:11:33.110Z,68.40
2018-02-08T20:14:01.058Z,68.40
2018-02-08T20:16:29.938Z,68.30
2018-02-08T20:18:58.594Z,68.30
2018-02-08T20:21:26.501Z,68.30
2018-02-08T20:23:55.205Z,68.30
2018-02-08T20:26:23.105Z,68.30
2018-02-08T20:28:51.099Z,68.30
2018-02-08T20:31:33.882Z,68.40
2018-02-08T20:34:01.747Z,68.20
2018-02-08T20:36:29.574Z,68.30
2018-02-08T20:38:57.489Z,68.40
2018-02-08T20:41:25.505Z,68.30
2018-02-08T20:43:54.187Z,68.30
2018-02-08T20:46:23.193Z,68.40
2018-02-08T20:48:51.022Z,68.30
2018-02-08T20:51:19.026Z,68.30
2018-02-08T20:53:47.092Z,68.30
2018-02-08T20:56:15.701Z,68.40
2018-02-08T20:58:44.441Z,68.40
2018-02-08T21:01:12.573Z,68.40
2018-02-08T21:03:40.414Z,67.80
2018-02-08T21:06:08.292Z,67.40
2018-02-08T21:08:36.212Z,67.30
2018-02-08T21:11:04.082Z,67.40
2018-02-08T21:13:32.713Z,67.60
2018-02-08T21:16:00.662Z,67.60
2018-02-08T21:18:28.550Z,67.80
2018-02-08T21:20:56.409Z,67.90
2018-02-08T21:23:24.450Z,67.80
2018-02-08T21:25:53.092Z,68.30
2018-02-08T21:28:21.019Z,68.20
2018-02-08T21:30:48.940Z,68.40
2018-02-08T21:33:16.890Z,68.40
2018-02-08T21:35:44.743Z,69.00
2018-02-08T21:38:12.701Z,68.30
2018-02-08T21:40:40.569Z,68.30
2018-02-08T21:43:08.462Z,68.30
2018-02-08T21:45:36.389Z,68.30
2018-02-08T21:48:04.281Z,68.30
2018-02-08T21:50:32.163Z,68.20
2018-02-08T21:53:00.083Z,68.30
2018-02-08T21:55:28.043Z,68.20
2018-02-08T21:57:56.720Z,68.20
2018-02-08T22:00:25.441Z,68.20
2018-02-08T22:02:53.301Z,68.20
2018-02-08T22:05:21.162Z,68.20
2018-02-08T22:07:49.084Z,68.20
2018-02-08T22:10:16.978Z,68.20
2018-02-08T22:12:45.661Z,68.20
2018-02-08T22:15:14.321Z,68.10
2018-02-08T22:17:42.197Z,68.10
2018-02-08T22:20:10.073Z,68.10
2018-02-08T22:22:38.738Z,68.90
2018-02-08T22:25:06.601Z,68.10
2018-02-08T22:27:34.464Z,68.20
2018-02-08T22:30:02.406Z,68.50
2018-02-08T22:32:30.289Z,68.60
2018-02-08T22:34:58.208Z,68.80
2018-02-08T22:37:26.910Z,69.10
2018-02-08T22:39:54.781Z,69.10
2018-02-08T22:42:22.678Z,69.30
2018-02-08T22:44:50.611Z,69.40
2018-02-08T22:47:18.489Z,70.20
2018-02-08T22:49:46.361Z,69.50
2018-02-08T22:52:14.262Z,69.40
2018-02-08T22:54:42.160Z,69.40
2018-02-08T22:57:10.841Z,68.90
2018-02-08T22:59:39.477Z,69.00
2018-02-08T23:02:07.377Z,69.00
2018-02-08T23:04:35.253Z,69.00
2018-02-08T23:07:03.956Z,69.30
2018-02-08T23:09:31.863Z,69.30
2018-02-08T23:11:59.761Z,69.40
2018-02-08T23:14:27.670Z,69.60
2018-02-08T23:16:55.575Z,69.70
2018-02-08T23:19:23.453Z,69.70
2018-02-08T23:21:51.392Z,69.80
2018-02-08T23:24:19.289Z,70.00
2018-02-08T23:26:47.181Z,70.20
2018-02-08T23:29:15.901Z,70.10
2018-02-08T23:31:43.769Z,70.00
2018-02-08T23:34:11.631Z,70.00
2018-02-08T23:36:39.541Z,70.00
2018-02-08T23:39:07.417Z,70.00
2018-02-08T23:41:35.290Z,69.80
2018-02-08T23:44:03.229Z,69.70
2018-02-08T23:46:31.101Z,69.70
2018-02-08T23:48:58.989Z,69.60
2018-02-08T23:51:26.865Z,69.60
2018-02-08T23:53:55.521Z,69.50
2018-02-08T23:56:23.402Z,69.40
2018-02-08T23:58:51.321Z,69.40
